sensor_id;sensor_type;location;lat;lon;timestamp;P1;durP1;ratioP1;P2;durP2;ratioP2
76105;SDS011;64832;45.274;5.880;2022-12-29T00:01:20;8.02;;;5.60;;
76105;SDS011;64832;45.274;5.880;2022-12-29T00:03:45;8.05;;;5.32;;
76105;SDS011;64832;45.274;5.880;2022-12-29T00:06:11;7.72;;;5.30;;
76105;SDS011;64832;45.274;5.880;2022-12-29T00:08:36;7.22;;;5.28;;
76105;SDS011;64832;45.274;5.880;2022-12-29T00:11:06;12.77;;;5.68;;
76105;SDS011;64832;45.274;5.880;2022-12-29T00:13:50;7.20;;;5.20;;
76105;SDS011;64832;45.274;5.880;2022-12-29T00:16:35;10.35;;;5.65;;
76105;SDS011;64832;45.274;5.880;2022-12-29T00:19:02;11.32;;;5.47;;
76105;SDS011;64832;45.274;5.880;2022-12-29T00:21:28;8.88;;;5.72;;
76105;SDS011;64832;45.274;5.880;2022-12-29T00:24:13;8.27;;;5.30;;
76105;SDS011;64832;45.274;5.880;2022-12-29T00:26:52;7.88;;;5.13;;
76105;SDS011;64832;45.274;5.880;2022-12-29T00:29:41;8.25;;;5.03;;
76105;SDS011;64832;45.274;5.880;2022-12-29T16:17:05;48.60;;;28.05;;
76105;SDS011;64832;45.274;5.880;2022-12-29T16:19:38;30.08;;;17.85;;
76105;SDS011;64832;45.274;5.880;2022-12-29T16:22:10;33.83;;;17.00;;
76105;SDS011;64832;45.274;5.880;2022-12-29T16:24:40;37.03;;;20.38;;
76105;SDS011;64832;45.274;5.880;2022-12-29T16:29:51;46.45;;;23.70;;
76105;SDS011;64832;45.274;5.880;2022-12-29T16:32:26;44.78;;;24.60;;
76105;SDS011;64832;45.274;5.880;2022-12-29T16:37:48;32.33;;;15.98;;
76105;SDS011;64832;45.274;5.880;2022-12-29T16:40:32;28.77;;;16.10;;
76105;SDS011;64832;45.274;5.880;2022-12-29T16:43:01;24.00;;;15.02;;
76105;SDS011;64832;45.274;5.880;2022-12-29T16:50:35;23.70;;;13.38;;
76105;SDS011;64832;45.274;5.880;2022-12-29T16:53:02;23.00;;;12.90;;
76105;SDS011;64832;45.274;5.880;2022-12-29T16:55:29;20.55;;;12.98;;
76105;SDS011;64832;45.274;5.880;2022-12-29T16:57:55;20.77;;;13.27;;
76105;SDS011;64832;45.274;5.880;2022-12-29T17:00:23;21.90;;;12.32;;
76105;SDS011;64832;45.274;5.880;2022-12-29T17:02:51;20.58;;;12.48;;
76105;SDS011;64832;45.274;5.880;2022-12-29T17:05:20;19.63;;;12.18;;
76105;SDS011;64832;45.274;5.880;2022-12-29T17:07:46;19.50;;;11.05;;
76105;SDS011;64832;45.274;5.880;2022-12-29T17:10:12;18.50;;;11.20;;
76105;SDS011;64832;45.274;5.880;2022-12-29T17:12:42;20.70;;;12.32;;
76105;SDS011;64832;45.274;5.880;2022-12-29T17:22:45;21.55;;;11.10;;
76105;SDS011;64832;45.274;5.880;2022-12-29T17:25:15;16.20;;;10.68;;
76105;SDS011;64832;45.274;5.880;2022-12-29T17:27:47;18.08;;;11.25;;
76105;SDS011;64832;45.274;5.880;2022-12-29T17:30:17;17.13;;;11.55;;
76105;SDS011;64832;45.274;5.880;2022-12-29T17:32:49;17.67;;;10.85;;
76105;SDS011;64832;45.274;5.880;2022-12-29T17:35:18;23.73;;;11.20;;
76105;SDS011;64832;45.274;5.880;2022-12-29T17:37:46;16.80;;;10.90;;
76105;SDS011;64832;45.274;5.880;2022-12-29T17:40:19;14.77;;;10.02;;
76105;SDS011;64832;45.274;5.880;2022-12-29T17:42:48;14.02;;;9.57;;
76105;SDS011;64832;45.274;5.880;2022-12-29T17:45:17;16.90;;;10.32;;
76105;SDS011;64832;45.274;5.880;2022-12-29T17:47:47;17.77;;;10.18;;
76105;SDS011;64832;45.274;5.880;2022-12-29T17:50:14;15.45;;;9.65;;
76105;SDS011;64832;45.274;5.880;2022-12-29T17:52:43;18.13;;;9.85;;
76105;SDS011;64832;45.274;5.880;2022-12-29T17:55:15;15.10;;;9.30;;
76105;SDS011;64832;45.274;5.880;2022-12-29T17:57:42;15.18;;;9.63;;
76105;SDS011;64832;45.274;5.880;2022-12-29T18:00:13;15.32;;;9.32;;
76105;SDS011;64832;45.274;5.880;2022-12-29T18:02:40;13.18;;;9.38;;
76105;SDS011;64832;45.274;5.880;2022-12-29T18:05:08;17.80;;;9.70;;
76105;SDS011;64832;45.274;5.880;2022-12-29T18:07:41;14.05;;;9.23;;
76105;SDS011;64832;45.274;5.880;2022-12-29T18:10:06;13.70;;;8.98;;
76105;SDS011;64832;45.274;5.880;2022-12-29T18:12:39;13.50;;;8.75;;
76105;SDS011;64832;45.274;5.880;2022-12-29T18:15:15;14.02;;;9.13;;
76105;SDS011;64832;45.274;5.880;2022-12-29T18:17:49;12.20;;;8.30;;
76105;SDS011;64832;45.274;5.880;2022-12-29T18:20:20;14.25;;;8.63;;
76105;SDS011;64832;45.274;5.880;2022-12-29T18:22:46;13.30;;;8.32;;
76105;SDS011;64832;45.274;5.880;2022-12-29T18:25:19;12.55;;;9.18;;
76105;SDS011;64832;45.274;5.880;2022-12-29T18:27:50;11.60;;;9.00;;
76105;SDS011;64832;45.274;5.880;2022-12-29T18:30:15;11.98;;;8.30;;
76105;SDS011;64832;45.274;5.880;2022-12-29T18:32:41;11.13;;;8.35;;
76105;SDS011;64832;45.274;5.880;2022-12-29T18:35:25;14.25;;;8.65;;
76105;SDS011;64832;45.274;5.880;2022-12-29T18:37:58;11.77;;;8.30;;
76105;SDS011;64832;45.274;5.880;2022-12-29T18:40:24;12.23;;;8.38;;
76105;SDS011;64832;45.274;5.880;2022-12-29T18:42:49;14.70;;;8.73;;
76105;SDS011;64832;45.274;5.880;2022-12-29T18:45:18;12.02;;;8.50;;
76105;SDS011;64832;45.274;5.880;2022-12-29T18:47:46;13.65;;;8.13;;
76105;SDS011;64832;45.274;5.880;2022-12-29T18:50:12;14.13;;;8.05;;
76105;SDS011;64832;45.274;5.880;2022-12-29T18:52:39;12.07;;;8.00;;
76105;SDS011;64832;45.274;5.880;2022-12-29T18:55:11;11.77;;;8.07;;
76105;SDS011;64832;45.274;5.880;2022-12-29T18:57:42;12.30;;;8.02;;
76105;SDS011;64832;45.274;5.880;2022-12-29T19:00:09;10.18;;;7.68;;
76105;SDS011;64832;45.274;5.880;2022-12-29T19:02:35;11.55;;;8.00;;
76105;SDS011;64832;45.274;5.880;2022-12-29T19:05:01;13.07;;;8.38;;
76105;SDS011;64832;45.274;5.880;2022-12-29T19:07:26;10.43;;;7.72;;
76105;SDS011;64832;45.274;5.880;2022-12-29T19:09:52;10.43;;;8.00;;
76105;SDS011;64832;45.274;5.880;2022-12-29T19:12:18;12.05;;;7.93;;
76105;SDS011;64832;45.274;5.880;2022-12-29T19:14:43;10.43;;;7.32;;
76105;SDS011;64832;45.274;5.880;2022-12-29T19:17:13;11.20;;;7.30;;
76105;SDS011;64832;45.274;5.880;2022-12-29T19:19:39;12.40;;;8.15;;
76105;SDS011;64832;45.274;5.880;2022-12-29T19:22:06;11.75;;;7.75;;
76105;SDS011;64832;45.274;5.880;2022-12-29T19:24:32;10.77;;;7.70;;
76105;SDS011;64832;45.274;5.880;2022-12-29T19:26:57;9.73;;;7.57;;
76105;SDS011;64832;45.274;5.880;2022-12-29T19:29:22;10.82;;;8.00;;
76105;SDS011;64832;45.274;5.880;2022-12-29T19:31:48;9.30;;;7.57;;
76105;SDS011;64832;45.274;5.880;2022-12-29T19:34:14;11.18;;;8.20;;
76105;SDS011;64832;45.274;5.880;2022-12-29T19:36:40;9.95;;;7.55;;
76105;SDS011;64832;45.274;5.880;2022-12-29T19:39:07;11.77;;;7.88;;
76105;SDS011;64832;45.274;5.880;2022-12-29T19:41:32;11.23;;;7.40;;
76105;SDS011;64832;45.274;5.880;2022-12-29T19:43:58;9.80;;;7.07;;
76105;SDS011;64832;45.274;5.880;2022-12-29T19:46:23;11.48;;;7.53;;
76105;SDS011;64832;45.274;5.880;2022-12-29T19:48:49;10.82;;;7.45;;
76105;SDS011;64832;45.274;5.880;2022-12-29T19:51:15;10.32;;;7.55;;
76105;SDS011;64832;45.274;5.880;2022-12-29T19:53:42;12.15;;;7.60;;
76105;SDS011;64832;45.274;5.880;2022-12-29T19:56:08;12.43;;;7.35;;
76105;SDS011;64832;45.274;5.880;2022-12-29T19:58:34;9.50;;;7.25;;
76105;SDS011;64832;45.274;5.880;2022-12-29T20:01:05;7.97;;;6.65;;
76105;SDS011;64832;45.274;5.880;2022-12-29T20:03:33;9.20;;;6.57;;
76105;SDS011;64832;45.274;5.880;2022-12-29T20:05:59;10.68;;;6.95;;
76105;SDS011;64832;45.274;5.880;2022-12-29T20:08:24;9.80;;;6.70;;
76105;SDS011;64832;45.274;5.880;2022-12-29T20:10:57;8.75;;;6.45;;
76105;SDS011;64832;45.274;5.880;2022-12-29T20:13:23;10.55;;;6.97;;
76105;SDS011;64832;45.274;5.880;2022-12-29T20:15:48;9.50;;;6.60;;
76105;SDS011;64832;45.274;5.880;2022-12-29T20:18:14;10.70;;;6.68;;
76105;SDS011;64832;45.274;5.880;2022-12-29T20:20:39;9.77;;;5.97;;
76105;SDS011;64832;45.274;5.880;2022-12-29T20:23:04;7.80;;;6.10;;
76105;SDS011;64832;45.274;5.880;2022-12-29T20:25:30;8.90;;;6.05;;
76105;SDS011;64832;45.274;5.880;2022-12-29T20:27:55;7.25;;;6.07;;
76105;SDS011;64832;45.274;5.880;2022-12-29T20:30:21;8.02;;;6.20;;
76105;SDS011;64832;45.274;5.880;2022-12-29T20:32:48;8.13;;;6.10;;
76105;SDS011;64832;45.274;5.880;2022-12-29T20:35:15;8.05;;;6.05;;
76105;SDS011;64832;45.274;5.880;2022-12-29T20:37:41;9.68;;;6.28;;
76105;SDS011;64832;45.274;5.880;2022-12-29T20:40:06;7.90;;;5.85;;
76105;SDS011;64832;45.274;5.880;2022-12-29T20:42:32;8.00;;;6.07;;
76105;SDS011;64832;45.274;5.880;2022-12-29T20:44:58;8.48;;;5.95;;
76105;SDS011;64832;45.274;5.880;2022-12-29T20:47:25;8.57;;;6.22;;
76105;SDS011;64832;45.274;5.880;2022-12-29T20:49:51;9.82;;;6.38;;
76105;SDS011;64832;45.274;5.880;2022-12-29T20:52:17;8.77;;;6.20;;
76105;SDS011;64832;45.274;5.880;2022-12-29T20:54:43;8.57;;;6.28;;
76105;SDS011;64832;45.274;5.880;2022-12-29T20:57:09;8.13;;;6.07;;
76105;SDS011;64832;45.274;5.880;2022-12-29T20:59:35;9.07;;;6.10;;
76105;SDS011;64832;45.274;5.880;2022-12-29T21:02:00;8.65;;;5.80;;
76105;SDS011;64832;45.274;5.880;2022-12-29T21:04:26;8.70;;;5.95;;
76105;SDS011;64832;45.274;5.880;2022-12-29T21:06:51;10.75;;;6.20;;
76105;SDS011;64832;45.274;5.880;2022-12-29T21:09:17;9.63;;;6.30;;
76105;SDS011;64832;45.274;5.880;2022-12-29T21:11:44;8.27;;;5.78;;
76105;SDS011;64832;45.274;5.880;2022-12-29T21:14:10;8.80;;;6.00;;
76105;SDS011;64832;45.274;5.880;2022-12-29T21:16:36;8.98;;;5.97;;
76105;SDS011;64832;45.274;5.880;2022-12-29T21:19:02;7.25;;;5.43;;
76105;SDS011;64832;45.274;5.880;2022-12-29T21:21:27;8.40;;;5.95;;
76105;SDS011;64832;45.274;5.880;2022-12-29T21:23:53;9.30;;;6.05;;
76105;SDS011;64832;45.274;5.880;2022-12-29T21:26:20;8.30;;;5.90;;
76105;SDS011;64832;45.274;5.880;2022-12-29T21:28:48;8.55;;;6.03;;
76105;SDS011;64832;45.274;5.880;2022-12-29T21:33:50;8.52;;;6.20;;
76105;SDS011;64832;45.274;5.880;2022-12-29T21:36:16;8.43;;;5.80;;
76105;SDS011;64832;45.274;5.880;2022-12-29T21:38:42;9.13;;;6.20;;
76105;SDS011;64832;45.274;5.880;2022-12-29T21:41:08;8.98;;;6.07;;
76105;SDS011;64832;45.274;5.880;2022-12-29T21:43:38;9.43;;;5.88;;
76105;SDS011;64832;45.274;5.880;2022-12-29T21:46:04;8.40;;;6.18;;
76105;SDS011;64832;45.274;5.880;2022-12-29T21:48:30;7.90;;;6.03;;
76105;SDS011;64832;45.274;5.880;2022-12-29T21:51:06;9.32;;;6.10;;
76105;SDS011;64832;45.274;5.880;2022-12-29T21:53:57;9.63;;;5.90;;
76105;SDS011;64832;45.274;5.880;2022-12-29T21:56:44;7.88;;;6.13;;
76105;SDS011;64832;45.274;5.880;2022-12-29T21:59:11;11.18;;;6.15;;
76105;SDS011;64832;45.274;5.880;2022-12-29T22:01:57;10.73;;;6.32;;
76105;SDS011;64832;45.274;5.880;2022-12-29T22:04:41;10.60;;;6.38;;
76105;SDS011;64832;45.274;5.880;2022-12-29T22:07:26;7.55;;;5.60;;
76105;SDS011;64832;45.274;5.880;2022-12-29T22:10:10;10.30;;;6.35;;
76105;SDS011;64832;45.274;5.880;2022-12-29T22:12:54;11.07;;;6.40;;
76105;SDS011;64832;45.274;5.880;2022-12-29T22:15:27;10.32;;;6.38;;
76105;SDS011;64832;45.274;5.880;2022-12-29T22:17:55;7.80;;;6.00;;
76105;SDS011;64832;45.274;5.880;2022-12-29T22:20:22;10.40;;;6.15;;
76105;SDS011;64832;45.274;5.880;2022-12-29T22:22:50;9.55;;;6.47;;
76105;SDS011;64832;45.274;5.880;2022-12-29T22:25:16;8.13;;;5.97;;
76105;SDS011;64832;45.274;5.880;2022-12-29T22:27:42;11.50;;;6.50;;
76105;SDS011;64832;45.274;5.880;2022-12-29T22:30:08;7.93;;;6.03;;
76105;SDS011;64832;45.274;5.880;2022-12-29T22:32:34;7.57;;;5.95;;
76105;SDS011;64832;45.274;5.880;2022-12-29T22:34:59;8.88;;;6.68;;
76105;SDS011;64832;45.274;5.880;2022-12-29T22:37:25;9.25;;;6.28;;
76105;SDS011;64832;45.274;5.880;2022-12-29T22:39:50;8.07;;;5.88;;
76105;SDS011;64832;45.274;5.880;2022-12-29T22:42:16;9.27;;;6.30;;
76105;SDS011;64832;45.274;5.880;2022-12-29T22:44:41;10.45;;;6.60;;
76105;SDS011;64832;45.274;5.880;2022-12-29T22:47:07;8.05;;;6.18;;
76105;SDS011;64832;45.274;5.880;2022-12-29T22:49:33;8.55;;;6.10;;
76105;SDS011;64832;45.274;5.880;2022-12-29T22:51:59;8.38;;;5.68;;
76105;SDS011;64832;45.274;5.880;2022-12-29T22:54:24;7.90;;;6.00;;
76105;SDS011;64832;45.274;5.880;2022-12-29T22:56:50;12.40;;;5.38;;
76105;SDS011;64832;45.274;5.880;2022-12-29T22:59:15;7.10;;;5.47;;
76105;SDS011;64832;45.274;5.880;2022-12-29T23:01:41;9.07;;;5.88;;
76105;SDS011;64832;45.274;5.880;2022-12-29T23:04:06;8.32;;;5.85;;
76105;SDS011;64832;45.274;5.880;2022-12-29T23:06:33;7.82;;;5.45;;
76105;SDS011;64832;45.274;5.880;2022-12-29T23:08:59;7.88;;;5.35;;
76105;SDS011;64832;45.274;5.880;2022-12-29T23:11:25;9.05;;;5.80;;
76105;SDS011;64832;45.274;5.880;2022-12-29T23:13:52;8.30;;;5.60;;
76105;SDS011;64832;45.274;5.880;2022-12-29T23:16:18;8.10;;;5.50;;
76105;SDS011;64832;45.274;5.880;2022-12-29T23:18:44;7.80;;;5.55;;
76105;SDS011;64832;45.274;5.880;2022-12-29T23:21:11;8.82;;;5.70;;
76105;SDS011;64832;45.274;5.880;2022-12-29T23:23:37;7.88;;;5.53;;
76105;SDS011;64832;45.274;5.880;2022-12-29T23:26:18;7.88;;;5.43;;
76105;SDS011;64832;45.274;5.880;2022-12-29T23:28:45;7.90;;;5.85;;
76105;SDS011;64832;45.274;5.880;2022-12-29T23:31:10;7.10;;;5.38;;
76105;SDS011;64832;45.274;5.880;2022-12-29T23:33:36;8.52;;;5.07;;
76105;SDS011;64832;45.274;5.880;2022-12-29T23:36:01;10.80;;;5.55;;
76105;SDS011;64832;45.274;5.880;2022-12-29T23:38:28;9.18;;;5.00;;
